createdAt,value
2018-06-20T00:00:26.091Z,25.97
2018-06-20T00:02:54.191Z,27.60
2018-06-20T00:05:22.950Z,24.70
2018-06-20T00:07:51.752Z,27.03
2018-06-20T00:10:20.655Z,24.17
2018-06-20T00:12:48.807Z,23.37
2018-06-20T00:15:16.915Z,23.73
2018-06-20T00:17:45.047Z,23.73
2018-06-20T00:20:13.162Z,21.60
2018-06-20T00:22:41.273Z,20.27
2018-06-20T00:25:09.396Z,20.47
2018-06-20T00:27:37.522Z,22.63
2018-06-20T00:30:05.635Z,20.33
2018-06-20T00:32:33.779Z,20.00
2018-06-20T00:35:01.896Z,21.83
2018-06-20T00:37:30.009Z,22.20
2018-06-20T00:39:58.116Z,21.60
2018-06-20T00:42:26.244Z,26.20
2018-06-20T00:44:57.610Z,24.83
2018-06-20T00:47:25.723Z,23.83
2018-06-20T00:49:57.330Z,19.37
2018-06-20T00:52:25.475Z,19.67
2018-06-20T00:54:53.630Z,19.93
2018-06-20T00:57:21.728Z,21.47
2018-06-20T00:59:49.847Z,20.30
2018-06-20T01:02:17.969Z,18.63
2018-06-20T01:04:46.084Z,19.67
2018-06-20T01:07:14.209Z,18.43
2018-06-20T01:09:42.326Z,19.87
2018-06-20T01:12:10.431Z,17.23
2018-06-20T01:14:38.549Z,19.47
2018-06-20T01:17:06.652Z,19.97
2018-06-20T01:19:34.750Z,21.57
2018-06-20T01:22:02.869Z,18.90
2018-06-20T01:24:30.962Z,20.70
2018-06-20T01:26:59.063Z,18.77
2018-06-20T01:29:27.170Z,19.20
2018-06-20T01:31:55.317Z,17.60
2018-06-20T01:34:23.413Z,17.23
2018-06-20T01:36:51.516Z,18.00
2018-06-20T01:39:19.599Z,20.73
2018-06-20T01:41:47.695Z,20.07
2018-06-20T01:44:15.792Z,18.77
2018-06-20T01:46:43.892Z,19.43
2018-06-20T01:49:12.015Z,19.77
2018-06-20T01:51:40.116Z,17.40
2018-06-20T01:54:08.223Z,17.30
2018-06-20T01:56:36.320Z,20.17
2018-06-20T01:59:04.443Z,20.20
2018-06-20T02:01:32.525Z,19.07
2018-06-20T02:04:00.692Z,18.70
2018-06-20T02:06:28.782Z,20.53
2018-06-20T02:08:57.782Z,20.60
2018-06-20T02:11:26.383Z,21.00
2018-06-20T02:13:54.535Z,19.70
2018-06-20T02:16:22.640Z,20.17
2018-06-20T02:18:50.765Z,17.67
2018-06-20T02:21:19.094Z,18.13
2018-06-20T02:23:47.227Z,17.60
2018-06-20T02:26:15.352Z,20.20
2018-06-20T02:28:43.480Z,19.80
2018-06-20T02:31:11.590Z,18.63
2018-06-20T02:33:39.741Z,17.97
2018-06-20T02:36:13.122Z,17.93
2018-06-20T02:38:41.343Z,19.30
2018-06-20T02:41:09.501Z,18.03
2018-06-20T02:43:37.639Z,20.83
2018-06-20T02:46:05.758Z,19.00
2018-06-20T02:48:33.862Z,18.30
2018-06-20T02:51:01.974Z,21.17
2018-06-20T02:53:30.092Z,20.80
2018-06-20T02:55:58.212Z,21.37
2018-06-20T02:58:26.323Z,20.80
2018-06-20T03:00:54.442Z,17.53
2018-06-20T03:03:22.562Z,18.90
2018-06-20T03:05:50.684Z,20.87
2018-06-20T03:08:18.793Z,18.87
2018-06-20T03:10:46.949Z,17.97
2018-06-20T03:13:15.125Z,20.73
2018-06-20T03:15:43.251Z,21.13
2018-06-20T03:18:11.393Z,18.10
2018-06-20T03:20:39.500Z,18.03
2018-06-20T03:23:07.612Z,17.83
2018-06-20T03:25:35.724Z,18.63
2018-06-20T03:28:03.838Z,18.57
2018-06-20T03:30:31.719Z,16.97
2018-06-20T03:32:59.819Z,19.03
2018-06-20T03:35:27.952Z,20.63
2018-06-20T03:37:56.076Z,18.90
2018-06-20T03:40:24.182Z,19.17
2018-06-20T03:42:52.296Z,20.07
2018-06-20T03:45:20.435Z,17.90
2018-06-20T03:47:48.553Z,18.93
2018-06-20T03:50:16.737Z,19.20
2018-06-20T03:52:44.861Z,17.70
2018-06-20T03:55:12.974Z,20.27
2018-06-20T03:57:41.091Z,19.47
2018-06-20T04:00:09.254Z,20.90
2018-06-20T04:02:37.387Z,20.40
2018-06-20T04:05:05.503Z,21.23
2018-06-20T04:07:33.629Z,20.23
2018-06-20T04:10:01.805Z,22.73
2018-06-20T04:12:29.912Z,20.80
2018-06-20T04:14:58.059Z,21.87
2018-06-20T04:17:26.194Z,23.70
2018-06-20T04:19:54.288Z,20.80
2018-06-20T04:22:22.634Z,22.53
2018-06-20T04:24:50.788Z,22.10
2018-06-20T04:27:18.899Z,22.47
2018-06-20T04:29:47.008Z,19.40
2018-06-20T04:32:15.140Z,20.97
2018-06-20T04:34:43.308Z,20.63
2018-06-20T04:37:11.365Z,19.27
2018-06-20T04:39:39.471Z,21.70
2018-06-20T04:42:07.358Z,19.93
2018-06-20T04:44:35.466Z,18.97
2018-06-20T04:47:03.555Z,21.87
2018-06-20T04:49:31.662Z,20.30
2018-06-20T04:51:59.772Z,20.50
2018-06-20T04:54:28.000Z,19.53
2018-06-20T04:56:56.087Z,19.67
2018-06-20T04:59:24.181Z,20.30
2018-06-20T05:01:52.314Z,20.17
2018-06-20T05:04:20.447Z,20.93
2018-06-20T05:06:48.541Z,23.03
2018-06-20T05:09:19.109Z,22.90
2018-06-20T05:11:48.622Z,33.13
2018-06-20T05:14:16.999Z,31.77
2018-06-20T05:16:45.112Z,28.40
2018-06-20T05:19:13.273Z,26.30
2018-06-20T05:21:41.430Z,25.70
2018-06-20T05:24:09.570Z,22.87
2018-06-20T05:26:37.692Z,20.43
2018-06-20T05:29:05.840Z,20.90
2018-06-20T05:31:33.962Z,24.17
2018-06-20T05:34:02.227Z,22.10
2018-06-20T05:36:30.342Z,24.67
2018-06-20T05:38:58.442Z,23.83
2018-06-20T05:41:26.585Z,18.87
2018-06-20T05:43:54.690Z,22.50
2018-06-20T05:46:22.856Z,17.37
2018-06-20T05:48:50.973Z,17.70
2018-06-20T05:51:19.110Z,21.93
2018-06-20T05:53:47.228Z,16.90
2018-06-20T05:56:15.395Z,24.70
2018-06-20T05:58:43.515Z,16.90
2018-06-20T06:01:11.685Z,16.27
2018-06-20T06:03:39.784Z,17.27
2018-06-20T06:06:16.252Z,14.73
2018-06-20T06:08:47.139Z,17.67
2018-06-20T06:11:15.268Z,16.80
2018-06-20T06:13:43.383Z,16.77
2018-06-20T06:16:11.510Z,15.77
2018-06-20T06:18:39.611Z,16.80
2018-06-20T06:21:07.713Z,15.47
2018-06-20T06:23:35.854Z,16.97
2018-06-20T06:26:03.963Z,19.10
2018-06-20T06:28:32.059Z,17.80
2018-06-20T06:31:00.166Z,16.73
2018-06-20T06:33:28.265Z,17.10
2018-06-20T06:35:56.366Z,18.60
2018-06-20T06:38:24.447Z,24.03
2018-06-20T06:40:52.636Z,18.80
2018-06-20T06:43:20.727Z,17.30
2018-06-20T06:45:48.871Z,20.53
2018-06-20T06:48:16.971Z,19.63
2018-06-20T06:50:45.075Z,17.50
2018-06-20T06:53:13.191Z,17.57
2018-06-20T06:55:41.286Z,19.00
2018-06-20T06:58:09.378Z,28.23
2018-06-20T07:00:37.494Z,23.87
2018-06-20T07:03:05.626Z,25.33
2018-06-20T07:05:33.748Z,24.50
2018-06-20T07:08:01.872Z,32.43
2018-06-20T07:10:30.107Z,42.27
2018-06-20T07:12:58.231Z,31.40
2018-06-20T07:15:26.354Z,32.93
2018-06-20T07:17:54.485Z,31.77
2018-06-20T07:20:22.616Z,34.03
2018-06-20T07:22:50.743Z,33.60
2018-06-20T07:25:18.854Z,30.57
2018-06-20T07:27:46.952Z,31.97
2018-06-20T07:30:15.081Z,33.27
2018-06-20T07:32:42.926Z,32.40
2018-06-20T07:35:11.050Z,25.83
2018-06-20T07:37:39.143Z,27.83
2018-06-20T07:40:07.263Z,22.83
2018-06-20T07:42:35.351Z,24.70
2018-06-20T07:45:03.553Z,26.23
2018-06-20T07:47:31.611Z,21.03
2018-06-20T07:49:59.715Z,21.60
2018-06-20T07:52:27.806Z,23.40
2018-06-20T07:54:55.906Z,24.13
2018-06-20T07:57:24.018Z,23.40
2018-06-20T07:59:57.626Z,21.93
2018-06-20T08:02:42.795Z,23.70
2018-06-20T08:05:16.466Z,21.50
2018-06-20T08:07:50.195Z,20.73
2018-06-20T08:10:23.851Z,24.03
2018-06-20T08:13:58.268Z,22.70
2018-06-20T08:16:32.018Z,21.27
2018-06-20T08:19:05.445Z,20.50
2018-06-20T08:21:33.571Z,21.10
2018-06-20T08:24:01.681Z,19.47
2018-06-20T08:26:29.783Z,21.10
2018-06-20T08:28:57.918Z,20.70
2018-06-20T08:31:26.044Z,19.67
2018-06-20T08:33:54.453Z,21.97
2018-06-20T08:36:22.571Z,23.47
2018-06-20T08:38:50.686Z,23.20
2018-06-20T08:41:18.783Z,20.23
2018-06-20T08:43:46.916Z,19.53
2018-06-20T08:46:15.057Z,20.77
2018-06-20T08:48:43.175Z,21.63
2018-06-20T08:51:11.323Z,20.97
2018-06-20T08:53:39.502Z,20.10
2018-06-20T08:56:07.606Z,22.77
2018-06-20T08:58:35.750Z,20.77
2018-06-20T09:01:03.873Z,18.93
2018-06-20T09:03:31.989Z,20.97
2018-06-20T09:06:05.487Z,18.50
2018-06-20T09:08:39.170Z,17.10
2018-06-20T09:11:12.747Z,20.47
2018-06-20T09:13:41.204Z,21.60
2018-06-20T09:16:14.588Z,21.43
2018-06-20T09:19:46.879Z,18.90
2018-06-20T09:22:16.363Z,19.43
2018-06-20T09:24:44.758Z,16.70
2018-06-20T09:27:12.904Z,18.17
2018-06-20T09:29:41.019Z,17.93
2018-06-20T09:32:08.943Z,19.80
2018-06-20T09:34:37.112Z,16.63
2018-06-20T09:37:05.671Z,18.73
2018-06-20T09:39:33.840Z,18.53
2018-06-20T09:42:02.219Z,16.50
2018-06-20T09:44:30.312Z,15.80
2018-06-20T09:46:59.139Z,13.53
2018-06-20T09:49:27.271Z,14.10
2018-06-20T09:51:55.800Z,15.43
2018-06-20T09:54:23.966Z,13.93
2018-06-20T09:56:52.047Z,13.37
2018-06-20T09:59:25.756Z,12.10
2018-06-20T10:01:59.716Z,10.97
2018-06-20T10:04:33.358Z,11.93
2018-06-20T10:07:07.026Z,10.97
2018-06-20T10:09:40.555Z,12.70
2018-06-20T10:12:15.877Z,11.90
2018-06-20T10:14:43.999Z,10.60
2018-06-20T10:17:12.134Z,10.83
2018-06-20T10:19:40.468Z,10.17
2018-06-20T10:22:08.560Z,9.30
2018-06-20T10:24:36.663Z,9.37
2018-06-20T10:27:04.803Z,8.93
2018-06-20T10:29:32.890Z,9.47
2018-06-20T10:32:01.063Z,8.50
2018-06-20T10:34:29.215Z,8.27
2018-06-20T10:36:57.310Z,8.80
2018-06-20T10:39:25.412Z,10.67
2018-06-20T10:41:53.526Z,7.60
2018-06-20T10:44:21.616Z,8.60
2018-06-20T10:46:55.124Z,8.80
2018-06-20T10:49:23.233Z,10.17
2018-06-20T10:51:51.337Z,8.10
2018-06-20T10:54:19.459Z,8.30
2018-06-20T10:56:52.845Z,9.60
2018-06-20T10:59:26.475Z,9.50
2018-06-20T11:02:00.105Z,7.37
2018-06-20T11:04:33.685Z,8.77
2018-06-20T11:07:07.332Z,8.37
2018-06-20T11:09:40.968Z,7.13
2018-06-20T11:12:14.576Z,6.60
2018-06-20T11:14:42.692Z,6.33
2018-06-20T11:17:10.828Z,6.03
2018-06-20T11:19:38.940Z,5.87
2018-06-20T11:22:07.045Z,5.30
2018-06-20T11:24:35.176Z,7.97
2018-06-20T11:27:03.293Z,7.87
2018-06-20T11:29:31.408Z,7.43
2018-06-20T11:31:59.552Z,8.90
2018-06-20T11:34:27.688Z,8.30
2018-06-20T11:36:55.798Z,9.30
2018-06-20T11:39:23.958Z,7.97
2018-06-20T11:41:52.019Z,9.37
2018-06-20T11:44:20.121Z,8.53
2018-06-20T11:46:53.838Z,10.33
2018-06-20T11:49:21.967Z,8.83
2018-06-20T11:51:50.070Z,8.43
2018-06-20T11:54:18.179Z,8.87
2018-06-20T11:56:46.292Z,5.70
2018-06-20T11:59:19.811Z,8.37
2018-06-20T12:02:51.276Z,6.33
2018-06-20T12:05:25.033Z,19.13
2018-06-20T12:07:58.640Z,7.03
2018-06-20T12:10:32.327Z,7.43
2018-06-20T12:13:05.927Z,7.23
2018-06-20T12:15:39.619Z,7.10
2018-06-20T12:18:13.081Z,6.17
2018-06-20T12:20:46.730Z,5.50
2018-06-20T12:23:20.395Z,6.00
2018-06-20T12:25:54.044Z,6.70
2018-06-20T12:28:27.618Z,6.93
2018-06-20T12:31:01.123Z,5.37
2018-06-20T12:33:34.605Z,6.70
2018-06-20T12:36:08.239Z,7.50
2018-06-20T12:38:41.938Z,6.57
2018-06-20T12:41:15.470Z,6.10
2018-06-20T12:43:48.875Z,7.33
2018-06-20T12:46:21.259Z,7.83
2018-06-20T12:48:49.428Z,6.03
2018-06-20T12:51:17.556Z,6.67
2018-06-20T12:53:45.680Z,5.80
2018-06-20T12:56:13.801Z,5.30
2018-06-20T12:58:41.923Z,5.90
2018-06-20T13:01:10.073Z,5.30
2018-06-20T13:03:38.154Z,6.47
2018-06-20T13:06:06.263Z,5.50
2018-06-20T13:08:34.368Z,5.03
2018-06-20T13:11:02.451Z,6.10
2018-06-20T13:13:30.551Z,6.93
2018-06-20T13:15:58.651Z,5.63
2018-06-20T13:18:26.768Z,8.80
2018-06-20T13:20:54.869Z,6.30
2018-06-20T13:23:22.981Z,6.20
2018-06-20T13:25:51.107Z,5.90
2018-06-20T13:28:19.220Z,5.33
2018-06-20T13:30:53.457Z,6.03
2018-06-20T13:33:27.002Z,6.83
2018-06-20T13:36:00.476Z,6.00
2018-06-20T13:38:34.105Z,5.93
2018-06-20T13:41:07.672Z,5.60
2018-06-20T13:43:41.444Z,5.83
2018-06-20T13:46:14.800Z,5.97
2018-06-20T13:48:42.955Z,4.90
2018-06-20T13:51:11.079Z,6.70
2018-06-20T13:53:39.190Z,5.43
2018-06-20T13:56:07.331Z,5.80
2018-06-20T13:58:35.440Z,5.50
2018-06-20T14:01:03.574Z,4.90
2018-06-20T14:03:31.706Z,5.13
2018-06-20T14:05:59.808Z,5.33
2018-06-20T14:08:27.928Z,5.63
2018-06-20T14:10:56.042Z,5.50
2018-06-20T14:13:24.156Z,5.87
2018-06-20T14:15:52.268Z,13.43
2018-06-20T14:18:20.355Z,5.80
2018-06-20T14:20:54.028Z,4.93
2018-06-20T14:23:22.119Z,8.00
2018-06-20T14:25:50.226Z,5.43
2018-06-20T14:28:18.334Z,5.97
2018-06-20T14:30:51.966Z,8.03
2018-06-20T14:33:25.527Z,5.60
2018-06-20T14:35:59.199Z,5.70
2018-06-20T14:38:32.750Z,5.53
2018-06-20T14:41:06.211Z,6.03
2018-06-20T14:43:39.815Z,5.40
2018-06-20T14:46:13.495Z,5.43
2018-06-20T14:48:41.603Z,7.80
2018-06-20T14:51:09.716Z,5.70
2018-06-20T14:53:37.835Z,5.83
2018-06-20T14:56:05.930Z,5.90
2018-06-20T14:58:34.037Z,5.70
2018-06-20T15:01:02.057Z,8.93
2018-06-20T15:03:30.052Z,8.50
2018-06-20T15:05:58.155Z,6.00
2018-06-20T15:08:26.249Z,6.07
2018-06-20T15:10:54.434Z,5.97
2018-06-20T15:13:22.531Z,6.50
2018-06-20T15:15:50.620Z,7.80
2018-06-20T15:18:18.998Z,5.43
2018-06-20T15:20:47.906Z,5.00
2018-06-20T15:23:16.041Z,6.40
2018-06-20T15:25:49.774Z,6.17
2018-06-20T15:28:23.103Z,5.97
2018-06-20T15:30:56.767Z,5.80
2018-06-20T15:33:30.454Z,6.50
2018-06-20T15:36:03.893Z,6.33
2018-06-20T15:38:32.031Z,5.90
2018-06-20T15:41:00.160Z,5.33
2018-06-20T15:43:28.275Z,7.23
2018-06-20T15:45:57.188Z,6.70
2018-06-20T15:48:25.286Z,5.57
2018-06-20T15:50:53.402Z,6.03
2018-06-20T15:53:21.526Z,6.93
2018-06-20T15:55:49.655Z,6.80
2018-06-20T15:58:17.786Z,5.40
2018-06-20T16:00:45.915Z,6.30
2018-06-20T16:03:14.023Z,8.03
2018-06-20T16:05:42.303Z,7.47
2018-06-20T16:08:10.507Z,7.90
2018-06-20T16:10:38.618Z,6.33
2018-06-20T16:13:06.752Z,6.57
2018-06-20T16:15:34.923Z,5.60
2018-06-20T16:18:03.114Z,6.20
2018-06-20T16:20:36.749Z,5.80
2018-06-20T16:23:10.447Z,5.67
2018-06-20T16:25:44.167Z,5.63
2018-06-20T16:28:17.673Z,5.90
2018-06-20T16:30:46.266Z,7.40
2018-06-20T16:33:14.391Z,5.80
2018-06-20T16:35:42.503Z,6.07
2018-06-20T16:38:10.644Z,5.73
2018-06-20T16:40:38.839Z,6.20
2018-06-20T16:43:06.988Z,7.17
2018-06-20T16:45:35.087Z,5.20
2018-06-20T16:48:03.208Z,4.27
2018-06-20T16:50:31.320Z,4.17
2018-06-20T16:52:59.436Z,3.60
2018-06-20T16:55:27.547Z,5.10
2018-06-20T16:57:55.704Z,3.57
2018-06-20T17:00:23.803Z,4.20
2018-06-20T17:02:51.932Z,3.53
2018-06-20T17:05:20.041Z,4.30
2018-06-20T17:07:48.148Z,4.47
2018-06-20T17:10:19.019Z,3.97
2018-06-20T17:12:52.775Z,4.70
2018-06-20T17:15:26.381Z,4.00
2018-06-20T17:17:59.887Z,3.83
2018-06-20T17:20:33.616Z,3.33
2018-06-20T17:23:07.307Z,3.70
2018-06-20T17:25:35.520Z,3.70
2018-06-20T17:28:03.673Z,4.73
2018-06-20T17:30:31.790Z,9.10
2018-06-20T17:32:59.907Z,8.37
2018-06-20T17:35:28.052Z,8.17
2018-06-20T17:37:56.214Z,8.50
2018-06-20T17:40:24.257Z,6.87
2018-06-20T17:42:52.403Z,3.37
2018-06-20T17:45:20.499Z,3.53
2018-06-20T17:47:48.634Z,3.93
2018-06-20T17:50:16.736Z,3.90
2018-06-20T17:52:44.840Z,4.73
2018-06-20T17:55:12.946Z,4.27
2018-06-20T17:57:41.043Z,3.33
2018-06-20T18:00:09.172Z,4.50
2018-06-20T18:02:37.289Z,6.03
2018-06-20T18:05:10.869Z,4.40
2018-06-20T18:07:44.388Z,3.43
2018-06-20T18:10:17.821Z,3.80
2018-06-20T18:12:51.494Z,3.73
2018-06-20T18:15:25.011Z,4.03
2018-06-20T18:17:53.113Z,6.73
2018-06-20T18:20:21.215Z,3.77
2018-06-20T18:22:49.317Z,3.97
2018-06-20T18:25:17.460Z,3.90
2018-06-20T18:27:45.559Z,3.60
2018-06-20T18:30:13.651Z,3.50
2018-06-20T18:32:41.748Z,3.97
2018-06-20T18:35:10.519Z,3.50
2018-06-20T18:37:38.685Z,4.03
2018-06-20T18:40:08.191Z,3.60
2018-06-20T18:42:36.874Z,4.50
2018-06-20T18:45:05.074Z,4.33
2018-06-20T18:48:38.399Z,6.37
2018-06-20T18:51:06.533Z,4.83
2018-06-20T18:53:34.587Z,5.20
2018-06-20T18:56:02.722Z,6.83
2018-06-20T18:58:36.207Z,5.03
2018-06-20T19:01:09.657Z,4.80
2018-06-20T19:04:45.966Z,4.00
2018-06-20T19:07:19.342Z,4.90
2018-06-20T19:09:47.472Z,5.07
2018-06-20T19:12:15.580Z,5.70
2018-06-20T19:14:43.729Z,4.17
2018-06-20T19:17:11.831Z,6.83
2018-06-20T19:19:39.964Z,4.00
2018-06-20T19:22:08.147Z,5.57
2018-06-20T19:24:37.319Z,4.30
2018-06-20T19:27:05.448Z,5.57
2018-06-20T19:29:34.602Z,5.50
2018-06-20T19:32:02.711Z,4.73
2018-06-20T19:34:30.815Z,9.67
2018-06-20T19:36:58.932Z,4.77
2018-06-20T19:39:32.437Z,4.57
2018-06-20T19:42:00.548Z,5.23
2018-06-20T19:44:33.148Z,4.70
2018-06-20T19:47:01.954Z,4.63
2018-06-20T19:49:30.096Z,4.63
2018-06-20T19:51:58.217Z,4.70
2018-06-20T19:54:26.346Z,5.87
2018-06-20T19:56:54.472Z,5.30
2018-06-20T19:59:22.814Z,4.93
2018-06-20T20:01:51.563Z,6.60
2018-06-20T20:04:19.775Z,5.80
2018-06-20T20:06:47.924Z,6.37
2018-06-20T20:09:16.058Z,5.10
2018-06-20T20:11:44.155Z,6.80
2018-06-20T20:14:12.336Z,5.53
2018-06-20T20:16:40.486Z,6.07
2018-06-20T20:19:08.603Z,7.77
2018-06-20T20:21:37.111Z,9.10
2018-06-20T20:24:05.901Z,5.63
2018-06-20T20:26:34.594Z,5.23
2018-06-20T20:29:02.738Z,7.40
2018-06-20T20:31:30.867Z,5.83
2018-06-20T20:33:59.093Z,9.80
2018-06-20T20:36:27.140Z,5.77
2018-06-20T20:38:55.247Z,6.50
2018-06-20T20:41:23.403Z,6.10
2018-06-20T20:43:51.508Z,6.60
2018-06-20T20:46:19.675Z,5.50
2018-06-20T20:48:47.847Z,6.03
2018-06-20T20:51:15.961Z,5.60
2018-06-20T20:53:44.085Z,5.60
2018-06-20T20:56:12.219Z,5.10
2018-06-20T20:58:40.323Z,6.67
2018-06-20T21:01:08.475Z,9.80
2018-06-20T21:03:36.567Z,7.40
2018-06-20T21:06:04.705Z,5.30
2018-06-20T21:08:32.815Z,5.90
2018-06-20T21:11:00.944Z,6.57
2018-06-20T21:13:29.063Z,5.90
2018-06-20T21:15:57.183Z,5.90
2018-06-20T21:18:25.306Z,5.20
2018-06-20T21:20:53.443Z,5.93
2018-06-20T21:23:21.520Z,5.73
2018-06-20T21:25:49.626Z,5.73
2018-06-20T21:28:17.714Z,5.10
2018-06-20T21:30:45.824Z,6.17
2018-06-20T21:33:13.965Z,5.30
2018-06-20T21:35:42.079Z,8.43
2018-06-20T21:38:10.283Z,4.73
2018-06-20T21:40:38.367Z,5.80
2018-06-20T21:43:06.458Z,5.90
2018-06-20T21:45:34.567Z,5.57
2018-06-20T21:48:02.678Z,6.03
2018-06-20T21:50:30.931Z,6.40
2018-06-20T21:52:59.055Z,6.00
2018-06-20T21:55:27.149Z,5.77
2018-06-20T21:57:55.247Z,5.47
2018-06-20T22:00:26.340Z,7.23
2018-06-20T22:02:54.519Z,8.80
2018-06-20T22:05:22.621Z,6.53
2018-06-20T22:07:50.723Z,6.87
2018-06-20T22:10:18.835Z,6.40
2018-06-20T22:12:47.023Z,6.33
2018-06-20T22:15:15.143Z,5.67
2018-06-20T22:17:43.269Z,6.10
2018-06-20T22:20:11.364Z,5.80
2018-06-20T22:22:39.487Z,6.43
2018-06-20T22:25:07.589Z,5.73
2018-06-20T22:27:35.675Z,5.33
2018-06-20T22:30:03.786Z,7.00
2018-06-20T22:32:31.905Z,6.63
2018-06-20T22:35:00.054Z,6.07
2018-06-20T22:37:28.152Z,7.00
2018-06-20T22:39:56.320Z,7.33
2018-06-20T22:42:24.434Z,6.53
2018-06-20T22:44:52.531Z,5.87
2018-06-20T22:47:20.427Z,5.73
2018-06-20T22:49:48.523Z,6.60
2018-06-20T22:52:16.704Z,6.17
2018-06-20T22:54:44.787Z,6.00
2018-06-20T22:57:12.912Z,8.33
2018-06-20T22:59:40.998Z,7.00
2018-06-20T23:02:09.093Z,7.23
2018-06-20T23:04:37.210Z,6.80
2018-06-20T23:07:05.623Z,7.30
2018-06-20T23:09:33.733Z,7.10
2018-06-20T23:12:01.835Z,6.37
2018-06-20T23:14:29.952Z,6.23
2018-06-20T23:16:58.063Z,7.07
2018-06-20T23:19:26.154Z,7.87
2018-06-20T23:21:54.259Z,6.90
2018-06-20T23:24:22.352Z,7.33
2018-06-20T23:26:50.458Z,7.07
2018-06-20T23:29:18.624Z,7.23
2018-06-20T23:31:52.924Z,9.73
2018-06-20T23:34:21.015Z,8.07
2018-06-20T23:36:49.119Z,9.20
2018-06-20T23:39:17.215Z,7.83
2018-06-20T23:41:45.315Z,12.87
2018-06-20T23:44:13.411Z,7.30
2018-06-20T23:46:41.530Z,7.33
2018-06-20T23:49:09.642Z,7.77
2018-06-20T23:51:37.726Z,7.17
2018-06-20T23:54:05.847Z,6.10
2018-06-20T23:56:33.944Z,6.53
2018-06-20T23:59:02.059Z,7.00
